地図

経路データ

SID SEASON NUMBER BASIN SUBBASIN NAME ISO_TIME NATURE LAT LON WMO_WIND WMO_PRES WMO_AGENCY TRACK_TYPE DIST2LAND LANDFALL IFLAG USA_AGENCY USA_ATCF_ID USA_LAT USA_LON USA_RECORD USA_STATUS USA_WIND USA_PRES USA_SSHS USA_R34_NE USA_R34_SE USA_R34_SW USA_R34_NW USA_R50_NE USA_R50_SE USA_R50_SW USA_R50_NW USA_R64_NE USA_R64_SE USA_R64_SW USA_R64_NW USA_POCI USA_ROCI USA_RMW USA_EYE TOKYO_LAT TOKYO_LON TOKYO_GRADE TOKYO_WIND TOKYO_PRES TOKYO_R50_DIR TOKYO_R50_LONG TOKYO_R50_SHORT TOKYO_R30_DIR TOKYO_R30_LONG TOKYO_R30_SHORT TOKYO_LAND CMA_LAT CMA_LON CMA_CAT CMA_WIND CMA_PRES HKO_LAT HKO_LON HKO_CAT HKO_WIND HKO_PRES NEWDELHI_LAT NEWDELHI_LON NEWDELHI_GRADE NEWDELHI_WIND NEWDELHI_PRES NEWDELHI_CI NEWDELHI_DP NEWDELHI_POCI REUNION_LAT REUNION_LON REUNION_TYPE REUNION_WIND REUNION_PRES REUNION_TNUM REUNION_CI REUNION_RMW REUNION_R34_NE REUNION_R34_SE REUNION_R34_SW REUNION_R34_NW REUNION_R50_NE REUNION_R50_SE REUNION_R50_SW REUNION_R50_NW REUNION_R64_NE REUNION_R64_SE REUNION_R64_SW REUNION_R64_NW BOM_LAT BOM_LON BOM_TYPE BOM_WIND BOM_PRES BOM_TNUM BOM_CI BOM_RMW BOM_R34_NE BOM_R34_SE BOM_R34_SW BOM_R34_NW BOM_R50_NE BOM_R50_SE BOM_R50_SW BOM_R50_NW BOM_R64_NE BOM_R64_SE BOM_R64_SW BOM_R64_NW BOM_ROCI BOM_POCI BOM_EYE BOM_POS_METHOD BOM_PRES_METHOD NADI_LAT NADI_LON NADI_CAT NADI_WIND NADI_PRES WELLINGTON_LAT WELLINGTON_LON WELLINGTON_WIND WELLINGTON_PRES DS824_LAT DS824_LON DS824_STAGE DS824_WIND DS824_PRES TD9636_LAT TD9636_LON TD9636_STAGE TD9636_WIND TD9636_PRES TD9635_LAT TD9635_LON TD9635_WIND TD9635_PRES TD9635_ROCI NEUMANN_LAT NEUMANN_LON NEUMANN_CLASS NEUMANN_WIND NEUMANN_PRES MLC_LAT MLC_LON MLC_CLASS MLC_WIND MLC_PRES USA_GUST BOM_GUST BOM_GUST_PER REUNION_GUST REUNION_GUST_PER USA_SEAHGT USA_SEARAD_NE USA_SEARAD_SE USA_SEARAD_SW USA_SEARAD_NW STORM_SPEED STORM_DIR
1950247N15145 1950 71 WP MM KEZIA 1950-09-04 06:00:00 TS 14.8000 145.200 main 1899 1899 __O___________ -1 14.8000 145.200 1 23 1000 7 20
1950247N15145 1950 71 WP MM KEZIA 1950-09-04 09:00:00 TS 15.1125 145.322 main 1932 1932 __P___________ -1 15.1125 145.322 1 23 1000 6 18
1950247N15145 1950 71 WP MM KEZIA 1950-09-04 12:00:00 TS 15.4000 145.400 main 1964 1964 __O___________ -1 15.4000 145.400 1 23 1000 5 7
1950247N15145 1950 71 WP MM KEZIA 1950-09-04 15:00:00 TS 15.6375 145.395 main 1987 1987 __P___________ -1 15.6375 145.395 1 23 1000 4 347
1950247N15145 1950 71 WP MM KEZIA 1950-09-04 18:00:00 TS 15.8000 145.300 main 2010 2010 __O___________ -1 15.8000 145.300 1 23 1000 3 318
1950247N15145 1950 71 WP MM KEZIA 1950-09-04 21:00:00 TS 15.8874 145.160 main 2022 2022 __P___________ -1 15.8874 145.160 1 23 1000 4 285
1950247N15145 1950 71 WP MM KEZIA 1950-09-05 00:00:00 TS 15.9000 144.900 main 2025 2025 __O___________ -1 15.9000 144.900 1 23 1000 7 269
1950247N15145 1950 71 WP MM KEZIA 1950-09-05 03:00:00 TS 15.8728 144.457 main 2029 2021 __P___________ -1 15.8728 144.457 1 26 999 9 263
1950247N15145 1950 71 WP MM KEZIA 1950-09-05 06:00:00 TS 15.8000 144.000 main 2025 2002 __O___________ -1 15.8000 144.000 1 29 998 7 259
1950247N15145 1950 71 WP MM KEZIA 1950-09-05 09:00:00 TS 15.7299 143.698 main 2002 1980 __P___________ -1 15.7299 143.698 1 29 998 5 247
1950247N15145 1950 71 WP MM KEZIA 1950-09-05 12:00:00 TS 15.6000 143.500 main 1980 1955 __O___________ -1 15.6000 143.500 1 29 998 5 223
1950247N15145 1950 71 WP MM KEZIA 1950-09-05 15:00:00 TS 15.3574 143.332 main 1955 1950 __P___________ -1 15.3574 143.332 1 29 998 5 201
1950247N15145 1950 71 WP MM KEZIA 1950-09-05 18:00:00 TS 15.1000 143.300 main 1950 1935 __O___________ -1 15.1000 143.300 1 29 998 5 166
1950247N15145 1950 71 WP MM KEZIA 1950-09-05 21:00:00 TS 14.8975 143.448 main 1935 1920 __P___________ -1 14.8975 143.448 1 29 998 5 128
1950247N15145 1950 71 WP MM KEZIA 1950-09-06 00:00:00 TS 14.8000 143.700 main 1920 1914 __O___________ -1 14.8000 143.700 1 29 998 5 96
1950247N15145 1950 71 WP MM KEZIA 1950-09-06 03:00:00 TS 14.8401 143.972 main 1914 1914 __P___________ -1 14.8401 143.972 1 33 997 5 68
1950247N15145 1950 71 WP MM KEZIA 1950-09-06 06:00:00 TS 15.0000 144.200 main 1933 1933 __O___________ -1 15.0000 144.200 2 38 996 5 41
1950247N15145 1950 71 WP MM KEZIA 1950-09-06 09:00:00 TS 15.2049 144.302 main 1954 1954 __P___________ -1 15.2049 144.302 2 38 995 5 11
1950247N15145 1950 71 WP MM KEZIA 1950-09-06 12:00:00 TS 15.5000 144.300 main 1987 1987 __O___________ -1 15.5000 144.300 2 38 994 7 355
1950247N15145 1950 71 WP MM KEZIA 1950-09-06 15:00:00 TS 15.8850 144.230 main 2033 2033 __P___________ -1 15.8850 144.230 2 43 992 8 346
1950247N15145 1950 71 WP MM KEZIA 1950-09-06 18:00:00 TS 16.3000 144.100 main 2056 2038 __O___________ -1 16.3000 144.100 3 48 990 8 341
1950247N15145 1950 71 WP MM KEZIA 1950-09-06 21:00:00 TS 16.6725 143.950 main 2038 1999 __P___________ -1 16.6725 143.950 3 48 988 8 338
1950247N15145 1950 71 WP MM KEZIA 1950-09-07 00:00:00 TS 17.0000 143.800 main 1999 1963 O_O______OOO__ jtwc_wp WP091950 17.0000 143.800 80 1 17.0000 143.800 3 48 986 17.0000 143.800 TC 80 17.0000 143.800 3 80 17.0000 143.800 80 985 360 8 338
1950247N15145 1950 71 WP MM KEZIA 1950-09-07 03:00:00 TS 17.3653 143.660 main 1953 1918 P_P______PPP__ WP091950 17.4626 143.628 80 1 17.2725 143.685 3 53 984 17.4626 143.628 TC 80 17.2594 143.706 3 81 17.4626 143.628 80 982 390 7 340
1950247N15145 1950 71 WP MM KEZIA 1950-09-07 06:00:00 TS 17.6716 143.546 main 1914 1904 O_O______OPO__ jtwc_wp WP091950 17.8000 143.500 80 1 17.5000 143.600 3 58 983 17.8000 143.500 TC 80 17.5150 143.610 3 82 17.8000 143.500 80 979 420 5 340
1950247N15145 1950 71 WP MM KEZIA 1950-09-07 09:00:00 TS 17.8551 143.476 main 1893 1879 P_P______PPP__ WP091950 17.9375 143.442 82 1 17.7000 143.542 3 63 981 17.9375 143.442 TC 82 17.7631 143.509 3 83 17.9375 143.442 82 977 420 3 339
1950247N15145 1950 71 WP MM KEZIA 1950-09-07 12:00:00 TS 17.9800 143.420 main 1879 1865 O_O______OOO__ jtwc_wp WP091950 18.0000 143.400 85 2 17.9000 143.500 4 68 980 18.0000 143.400 TC 85 18.0000 143.400 4 85 18.0000 143.400 85 975 420 3 335
1950247N15145 1950 71 WP MM KEZIA 1950-09-07 15:00:00 TS 18.1453 143.338 main 1865 1840 P_P______PPP__ WP091950 18.1200 143.315 85 2 18.1425 143.465 4 68 980 18.1200 143.315 TC 85 18.2241 143.282 4 88 18.1200 143.315 85 973 420 4 334
1950247N15145 1950 71 WP MM KEZIA 1950-09-07 18:00:00 TS 18.3485 143.231 main 1840 1805 O_O______OPO__ jtwc_wp WP091950 18.3000 143.200 85 2 18.4000 143.400 4 68 980 18.3000 143.200 TC 85 18.4425 143.157 4 92 18.3000 143.200 85 972 420 5 334
1950247N15145 1950 71 WP MM KEZIA 1950-09-07 21:00:00 TS 18.6184 143.092 main 1805 1766 P_P______PPP__ WP091950 18.5925 143.058 92 2 18.6500 143.258 4 72 977 18.5925 143.058 TC 92 18.6647 143.029 4 96 18.5925 143.058 92 970 420 6 333
1950247N15145 1950 71 WP MM KEZIA 1950-09-08 00:00:00 TS 18.9000 142.940 main 1766 1741 O_O______OOO__ jtwc_wp WP091950 18.9000 142.900 100 3 18.9000 143.100 4 77 975 18.9000 142.900 TC 100 18.9000 142.900 4 100 18.9000 142.900 100 968 420 6 331
1950247N15145 1950 71 WP MM KEZIA 1950-09-08 03:00:00 TS 19.1112 142.798 main 1741 1716 P_P______PPP__ WP091950 19.0925 142.742 100 3 19.1425 142.992 4 77 972 19.0925 142.742 TC 100 19.1363 142.771 4 100 19.0925 142.742 100 965 480 5 330
1950247N15145 1950 71 WP MM KEZIA 1950-09-08 06:00:00 TS 19.3380 142.668 main 1716 1681 O_O______OPO__ jtwc_wp WP091950 19.3000 142.600 100 3 19.4000 142.900 4 77 970 19.3000 142.600 TC 100 19.3900 142.642 4 100 19.3000 142.600 100 963 540 6 337
1950247N15145 1950 71 WP MM KEZIA 1950-09-08 09:00:00 TS 19.6437 142.562 main 1681 1636 P_P______PPP__ WP091950 19.6200 142.492 100 3 19.6850 142.815 4 82 967 19.6200 142.492 TC 100 19.6738 142.518 4 100 19.6200 142.492 100 960 510 7 343
1950247N15145 1950 71 WP MM KEZIA 1950-09-08 12:00:00 TS 20.0000 142.460 main 1636 1591 O_O______OOO__ jtwc_wp WP091950 20.0000 142.400 100 3 20.0000 142.700 5 87 965 20.0000 142.400 TC 100 20.0000 142.400 4 100 20.0000 142.400 100 958 480 8 344
1950247N15145 1950 71 WP MM KEZIA 1950-09-08 15:00:00 TS 20.3760 142.345 main 1587 1541 P_P______PPP__ WP091950 20.3850 142.300 100 3 20.3350 142.515 5 92 962 20.3850 142.300 TC 100 20.3899 142.313 4 95 20.3850 142.300 100 956 480 8 344
1950247N15145 1950 71 WP MM KEZIA 1950-09-08 18:00:00 TS 20.7840 142.226 main 1541 1496 O_O______OPO__ jtwc_wp WP091950 20.8000 142.200 100 3 20.7000 142.300 5 97 960 20.8000 142.200 TC 100 20.8198 142.229 4 90 20.8000 142.200 100 954 480 9 346
1950247N15145 1950 71 WP MM KEZIA 1950-09-08 21:00:00 TS 21.2229 142.126 main 1496 1451 P_P______PPP__ WP091950 21.2499 142.130 90 2 21.0999 142.107 5 97 957 21.2499 142.130 TC 90 21.2648 142.131 4 85 21.2499 142.130 90 951 480 9 345
1950247N15145 1950 71 WP MM KEZIA 1950-09-09 00:00:00 TS 21.6600 141.980 main 1441 1398 O_O______OOO__ jtwc_wp WP091950 21.7000 142.000 80 1 21.5000 141.900 5 97 955 21.7000 142.000 TC 80 21.7000 142.000 4 80 21.7000 142.000 80 949 480 9 336
1950247N15145 1950 71 WP MM KEZIA 1950-09-09 03:00:00 TS 22.0608 141.721 main 1387 1348 P_P______PPP__ WP091950 22.1152 141.708 80 1 21.8650 141.657 5 101 952 22.1152 141.708 TC 80 22.0934 141.823 4 80 22.1152 141.708 80 947 510 9 327
1950247N15145 1950 71 WP MM KEZIA 1950-09-09 06:00:00 TS 22.4345 141.442 main 1344 1299 O_O______OPO__ jtwc_wp WP091950 22.5000 141.400 80 1 22.2000 141.400 6 106 950 22.5000 141.400 TC 80 22.4724 141.610 4 80 22.5000 141.400 80 945 540 8 329
1950247N15145 1950 71 WP MM KEZIA 1950-09-09 09:00:00 TS 22.7749 141.257 main 1299 1260 P_P______PPP__ WP091950 22.8498 141.249 80 1 22.4848 141.172 6 106 950 22.8498 141.249 TC 80 22.8402 141.367 4 80 22.8498 141.249 80 945 480 8 333
1950247N15145 1950 71 WP MM KEZIA 1950-09-09 12:00:00 TS 23.1200 141.060 main 1260 1207 O_O______OOO__ jtwc_wp WP091950 23.2000 141.100 80 1 22.8000 140.900 6 106 950 23.2000 141.100 TC 80 23.2000 141.100 4 80 23.2000 141.100 80 946 420 9 329
1950247N15145 1950 71 WP MM KEZIA 1950-09-09 15:00:00 TS 23.5223 140.763 main 1207 1150 P_P______PPP__ WP091950 23.6075 140.823 80 1 23.2277 140.508 6 106 950 23.6075 140.823 TC 80 23.5609 140.841 4 81 23.6075 140.823 80 946 390 10 324
1950247N15145 1950 71 WP MM KEZIA 1950-09-09 18:00:00 TS 23.9229 140.432 main 1150 1101 O_O______OPO__ jtwc_wp WP091950 24.0000 140.500 80 1 23.7000 140.100 6 106 950 24.0000 140.500 TC 80 23.9145 140.559 4 82 24.0000 140.500 80 946 360 9 323
1950247N15145 1950 71 WP MM KEZIA 1950-09-09 21:00:00 TS 24.2755 140.140 main 1098 1056 P_P______PPP__ WP091950 24.3148 140.222 82 1 24.1723 139.785 6 111 947 24.3148 140.222 TC 82 24.2608 140.247 4 83 24.3148 140.222 82 946 360 9 320
1950247N15145 1950 71 WP MM KEZIA 1950-09-10 00:00:00 TS 24.6000 139.820 main 1056 1010 O_O______OOO__ jtwc_wp WP091950 24.6000 139.900 85 2 24.6000 139.500 6 116 945 24.6000 139.900 TC 85 24.6000 139.900 4 85 24.6000 139.900 85 947 360 9 314
1950247N15145 1950 71 WP MM KEZIA 1950-09-10 03:00:00 TS 24.9051 139.425 main 1010 966 P_P______PPP__ WP091950 24.8926 139.465 87 2 24.9074 139.207 6 116 945 24.8926 139.465 TC 87 24.9401 139.523 4 86 24.8926 139.465 87 947 390 10 310
1950247N15145 1950 71 WP MM KEZIA 1950-09-10 06:00:00 TS 25.2144 139.002 main 966 922 O_O______OPO__ jtwc_wp WP091950 25.2000 139.000 90 2 25.2000 138.900 6 116 945 25.2000 139.000 TC 90 25.2722 139.110 4 87 25.2000 139.000 90 948 420 10 312
1950247N15145 1950 71 WP MM KEZIA 1950-09-10 09:00:00 TS 25.5684 138.611 main 911 868 P_P______PPP__ WP091950 25.5498 138.600 90 2 25.5997 138.587 6 116 945 25.5498 138.600 TC 90 25.5931 138.666 4 88 25.5498 138.600 90 947 420 10 314
1950247N15145 1950 71 WP MM KEZIA 1950-09-10 12:00:00 TS 25.9200 138.200 main 868 826 O_O______OOO__ jtwc_wp WP091950 25.9000 138.200 90 2 26.0000 138.200 6 116 945 25.9000 138.200 TC 90 25.9000 138.200 4 90 25.9000 138.200 90 947 420 10 310
1950247N15145 1950 71 WP MM KEZIA 1950-09-10 15:00:00 TS 26.2307 137.741 main 824 783 P_P______PPP__ WP091950 26.2148 137.772 90 2 26.3076 137.680 6 116 945 26.2148 137.772 TC 90 26.2017 137.709 4 90 26.2148 137.772 90 947 420 10 305
1950247N15145 1950 71 WP MM KEZIA 1950-09-10 18:00:00 TS 26.5175 137.240 main 781 726 O_O______OPO__ jtwc_wp WP091950 26.5000 137.300 90 2 26.6000 137.100 6 116 945 26.5000 137.300 TC 90 26.4877 137.200 4 90 26.5000 137.300 90 947 420 11 301
1950247N15145 1950 71 WP MM KEZIA 1950-09-10 21:00:00 TS 26.8091 136.686 main 726 676 P_P______PPP__ WP091950 26.7728 136.735 90 2 26.9724 136.535 6 116 945 26.7728 136.735 TC 90 26.7548 136.691 4 90 26.7728 136.735 90 948 420 11 299
1950247N15145 1950 71 WP MM KEZIA 1950-09-11 00:00:00 TS 27.0600 136.160 main 668 633 O_O______OOO__ jtwc_wp WP091950 27.0000 136.200 90 2 27.3000 136.000 6 116 945 27.0000 136.200 TC 90 27.0000 136.200 4 90 27.0000 136.200 90 950 420 9 297
1950247N15145 1950 71 WP MM KEZIA 1950-09-11 03:00:00 TS 27.2297 135.757 main 633 590 P_P______PPP__ WP091950 27.1495 135.842 82 1 27.4873 135.520 6 116 945 27.1495 135.842 TC 82 27.2129 135.740 4 86 27.1495 135.842 82 952 420 8 295
1950247N15145 1950 71 WP MM KEZIA 1950-09-11 06:00:00 TS 27.3814 135.381 main 590 542 O_O______OPO__ jtwc_wp WP091950 27.3000 135.500 75 1 27.6000 135.100 6 116 945 27.3000 135.500 TC 75 27.4069 135.304 4 82 27.3000 135.500 75 954 420 8 296
1950247N15145 1950 71 WP MM KEZIA 1950-09-11 09:00:00 TS 27.5851 134.921 main 542 500 P_P______PPP__ WP091950 27.5428 134.993 75 1 27.6998 134.735 6 116 945 27.5428 134.993 TC 75 27.5974 134.890 4 78 27.5428 134.993 75 955 420 9 298
1950247N15145 1950 71 WP MM KEZIA 1950-09-11 12:00:00 TS 27.8000 134.480 main 500 465 O_O______OOO__ jtwc_wp WP091950 27.8000 134.500 75 1 27.8000 134.400 6 116 945 27.8000 134.500 TC 75 27.8000 134.500 4 75 27.8000 134.500 75 957 420 8 301
1950247N15145 1950 71 WP MM KEZIA 1950-09-11 15:00:00 TS 27.9916 134.143 main 460 425 P_P______PPP__ WP091950 27.9921 134.184 77 1 27.9424 134.050 6 116 945 27.9921 134.184 TC 77 28.0394 134.112 4 78 27.9921 134.184 77 959 420 7 305
1950247N15145 1950 71 WP MM KEZIA 1950-09-11 18:00:00 TS 28.1984 133.829 main 425 391 O_O______OPO__ jtwc_wp WP091950 28.2000 133.900 80 1 28.1000 133.700 6 116 945 28.2000 133.900 TC 80 28.2922 133.747 4 82 28.2000 133.900 80 961 420 8 307
1950247N15145 1950 71 WP MM KEZIA 1950-09-11 21:00:00 TS 28.4539 133.441 main 376 342 P_P______PPP__ WP091950 28.4927 133.485 85 2 28.2425 133.342 6 116 945 28.4927 133.485 TC 85 28.5489 133.409 4 86 28.4927 133.485 85 963 420 8 308
1950247N15145 1950 71 WP MM KEZIA 1950-09-12 00:00:00 TS 28.7200 133.080 main 342 309 O_O______OOO__ jtwc_wp WP091950 28.8000 133.100 90 2 28.4000 133.000 6 116 945 28.8000 133.100 TC 90 28.8000 133.100 4 90 28.8000 133.100 90 965 420 7 313
1950247N15145 1950 71 WP MM KEZIA 1950-09-12 03:00:00 TS 28.9623 132.828 main 299 271 P_P______PPP__ WP091950 29.0647 132.885 90 2 28.5774 132.685 6 111 947 29.0647 132.885 TC 90 29.0401 132.801 4 85 29.0647 132.885 90 970 420 6 319
1950247N15145 1950 71 WP MM KEZIA 1950-09-12 06:00:00 TS 29.1944 132.606 main 271 235 O_O______OPO__ jtwc_wp WP091950 29.3000 132.700 90 2 28.8000 132.400 6 106 950 29.3000 132.700 TC 90 29.2722 132.532 4 80 29.3000 132.700 90 975 420 6 316
1950247N15145 1950 71 WP MM KEZIA 1950-09-12 09:00:00 TS 29.4247 132.319 main 235 205 P_P______PPP__ WP091950 29.5152 132.385 80 1 29.0849 132.142 6 101 952 29.5152 132.385 TC 80 29.4933 132.298 4 75 29.5152 132.385 80 974 420 7 313
1950247N15145 1950 71 WP MM KEZIA 1950-09-12 12:00:00 TS 29.6400 132.060 main 205 176 O_O______OOO__ jtwc_wp WP091950 29.7000 132.100 70 1 29.4000 131.900 5 97 955 29.7000 132.100 TC 70 29.7000 132.100 4 70 29.7000 132.100 70 973 420 5 317
1950247N15145 1950 71 WP MM KEZIA 1950-09-12 15:00:00 TS 29.8134 131.902 main 176 153 P_P______PPP__ WP091950 29.8499 131.977 65 1 29.6850 131.635 5 92 955 29.8499 131.977 TC 65 29.8322 131.946 4 67 29.8499 131.977 65 967 420 4 326
1950247N15145 1950 71 WP MM KEZIA 1950-09-12 18:00:00 TS 29.9919 131.785 main 153 130 O_O______OPO__ jtwc_wp WP091950 30.0000 131.900 60 0 30.0000 131.400 5 87 955 30.0000 131.900 TC 60 29.9596 131.826 4 65 30.0000 131.900 60 961 420 4 329
1950247N15145 1950 71 WP MM KEZIA 1950-09-12 21:00:00 TS 30.1724 131.655 main 130 94 P_P______PPP__ WP091950 30.1174 131.779 60 0 30.3775 131.220 5 82 957 30.1174 131.779 TC 60 30.1322 131.718 4 62 30.1174 131.779 60 957 390 5 333
1950247N15145 1950 71 WP MM KEZIA 1950-09-13 00:00:00 TS 30.4800 131.500 main 94 38 O_O______OOO__ jtwc_wp WP091950 30.4000 131.600 60 0 30.8000 131.100 4 77 960 30.4000 131.600 TC 60 30.4000 131.600 2 60 30.4000 131.600 60 954 360 9 338
1950247N15145 1950 71 WP MM KEZIA 1950-09-13 03:00:00 TS 31.0352 131.252 main 38 0 P_P______PPP__ WP091950 31.0778 131.287 60 0 31.2275 131.035 4 72 962 31.0778 131.287 TC 60 30.7153 131.367 2 58 31.0778 131.287 60 958 360 12 341
1950247N15145 1950 71 WP MM KEZIA 1950-09-13 06:00:00 TS 31.6487 131.026 main 0 0 O_O______OPO__ jtwc_wp WP091950 31.8000 131.000 60 0 31.7000 131.000 4 68 964 31.8000 131.000 TC 60 31.1433 131.131 2 57 31.8000 131.000 60 962 360 10 344
1950247N15145 1950 71 WP MM KEZIA 1950-09-13 09:00:00 TS 32.0173 130.910 main 0 0 P_P______PPP__ WP091950 32.0599 130.890 57 0 32.1825 130.928 4 68 964 32.0599 130.890 TC 57 31.7245 130.954 2 56 32.0599 130.890 57 965 360 9 353
1950247N15145 1950 71 WP MM KEZIA 1950-09-13 12:00:00 TS 32.5600 130.900 main 0 0 O_O______OOO__ jtwc_wp WP091950 32.5000 130.900 55 0 32.8000 130.900 4 68 964 32.5000 130.900 TC 55 32.5000 130.900 2 55 32.5000 130.900 55 969 360 16 0
1950247N15145 1950 71 WP MM KEZIA 1950-09-13 15:00:00 TS 33.6387 130.931 main 0 0 P_P______PPP__ WP091950 33.6873 130.919 52 0 33.6021 130.905 4 63 969 33.6873 130.919 TC 52 33.5293 130.992 2 53 33.6873 130.919 52 973 360 24 5
1950247N15145 1950 71 WP MM KEZIA 1950-09-13 18:00:00 TS 34.9282 131.125 main 56 56 O_O______OPO__ jtwc_wp WP091950 35.1000 131.100 50 0 34.6000 131.100 3 58 975 35.1000 131.100 TC 50 34.7411 131.226 2 52 35.1000 131.100 50 977 360 25 11
1950247N15145 1950 71 WP MM KEZIA 1950-09-13 21:00:00 TS 36.0877 131.535 main 126 126 P_P______PPP__ WP091950 36.2073 131.504 50 0 35.7845 131.565 3 58 975 36.2073 131.504 TC 50 36.0323 131.597 2 51 36.2073 131.504 50 981 360 25 20
1950247N15145 1950 71 WP MM KEZIA 1950-09-14 00:00:00 TS 37.2400 132.140 main 202 202 O_O______OOO__ jtwc_wp WP091950 37.3000 132.100 50 0 37.0000 132.300 3 58 975 37.3000 132.100 TC 50 37.3000 132.100 2 50 37.3000 132.100 50 985 360 26 24
1950247N15145 1950 71 WP MM KEZIA 1950-09-14 03:00:00 TS 38.4529 132.876 main 334 334 P_P______PPP__ WP091950 38.5876 132.811 47 0 38.0375 133.227 3 58 975 38.5876 132.811 TC 47 38.4640 132.724 2 52 38.5876 132.811 47 984 360 27 28
1950247N15145 1950 71 WP MM KEZIA 1950-09-14 06:00:00 TS 39.5776 133.730 main 349 262 O_O______OPO__ jtwc_wp WP091950 39.8000 133.600 45 0 39.0000 134.300 3 58 975 39.8000 133.600 TC 45 39.5323 133.448 2 55 39.8000 133.600 45 983 360 24 29
1950247N15145 1950 71 WP MM KEZIA 1950-09-14 09:00:00 TS 40.5373 134.403 main 262 211 P_P______PPP__ WP091950 40.7593 133.958 52 0 39.9945 135.393 3 53 977 40.7593 133.958 TC 52 40.5345 134.248 2 57 40.7380 134.362 52 981 360 22 38
1950247N15145 1950 71 WP MM KEZIA 1950-09-14 12:00:00 TS 41.3286 135.500 main 221 170 O_O______OOO__ jtwc_wp WP091950 41.5000 135.100 60 0 40.9000 136.500 3 48 980 41.5000 135.100 TC 60 41.5000 135.100 2 60 41.5000 135.100 60 980 360 29 67
1950247N15145 1950 71 WP MM KEZIA 1950-09-14 15:00:00 TS 41.7052 138.012 main 162 0 P_P______P____ WP091950 41.7833 138.374 55 0 41.5488 137.289 3 48 982 41.7833 138.374 TC 55 2 41 76
1950247N15145 1950 71 WP MM KEZIA 1950-09-14 18:00:00 TS 42.3000 140.867 main 8 0 O_O______O____ jtwc_wp WP091950 42.3000 142.000 50 0 42.3000 138.600 3 48 985 42.3000 142.000 TC 50 2 44 62
1950247N15145 1950 71 WP MM KEZIA 1950-09-14 21:00:00 TS 43.7804 143.321 main 0 0 P_P______P____ WP091950 43.9657 144.254 45 0 43.4098 141.457 3 48 985 43.9657 144.254 TC 45 2 48 47
1950247N15145 1950 71 WP MM KEZIA 1950-09-15 00:00:00 MX 45.5667 145.667 main 136 136 O_O______O____ jtwc_wp WP091950 46.0000 146.200 40 0 44.7000 144.600 9 48 985 46.0000 146.200 TC 40 46 45
1950247N15145 1950 71 WP MM KEZIA 1950-09-15 03:00:00 MX 47.0365 147.941 main 185 184 P_P______P____ WP091950 47.5533 148.625 37 0 46.0028 146.571 9 986 47.5533 148.625 TC 37 41 46
1950247N15145 1950 71 WP MM KEZIA 1950-09-15 06:00:00 MX 48.4400 149.960 main 255 227 O_O______O____ jtwc_wp WP091950 49.0000 151.000 35 0 47.6000 148.400 9 987 49.0000 151.000 TC 35 42 42
1950247N15145 1950 71 WP MM KEZIA 1950-09-15 09:00:00 MX 50.1795 152.147 main 219 157 P_P______P____ WP091950 50.4847 153.072 32 -1 49.8742 151.221 9 987 50.4847 153.072 TC 32 44 40
1950247N15145 1950 71 WP MM KEZIA 1950-09-15 12:00:00 MX 51.8000 154.333 main 150 81 O_O______O____ jtwc_wp WP091950 52.0000 155.000 30 -1 51.7000 154.000 9 987 52.0000 155.000 TC 30 27 48
1950247N15145 1950 71 WP MM KEZIA 1950-09-15 15:00:00 ET 51.9528 155.380 main 74 0 __P___________ WP091950 -1 51.9528 155.380 9 988 TC 14 90
1950247N15145 1950 71 WP MM KEZIA 1950-09-15 18:00:00 ET 51.8000 156.600 main 0 0 __O___________ -1 51.8000 156.600 9 989 24 83
1950247N15145 1950 71 WP MM KEZIA 1950-09-15 21:00:00 ET 52.2335 159.275 main 55 55 __P___________ -1 52.2335 159.275 9 991 34 71
1950247N15145 1950 71 WP MM KEZIA 1950-09-16 00:00:00 ET 52.9000 161.900 main 121 121 __O___________ -1 52.9000 161.900 9 994 29 58
1950247N15145 1950 71 WP MM KEZIA 1950-09-16 03:00:00 ET 53.7819 163.344 main 126 111 __P___________ -1 53.7819 163.344 9 996 23 33
1950247N15145 1950 71 WP MM KEZIA 1950-09-16 06:00:00 ET 54.8000 164.000 main 121 __O___________ -1 54.8000 164.000 9 998 22 20

デジタル台風データ・検索

IBTrACS Databaseについて

本データベースは、米国NOAAが公開する1842年以降の世界の熱帯低気圧のベストトラックデータアーカイブInternational Best Track Archive for Climate Stewardship (IBTrACS)を、ウェブで閲覧しやすい形式に変換したものです。

最終更新日:2021-12-06